M I D A S
Marine Information and Data Acquisition System
Tripno 1700 of the Zeeleeuw from 2009-05-27 07:00:46 to 2009-05-27 12:25:24
Back to CruiseResearch ActivitiesStationsMapUnderway DataData graphs

EquipmentUnitsComment
TimeDGPSUTC
LatitudeDGPSDM.mWGS84
LongitudeDGPSDM.mWGS84
HeadingGyrodeg 
SOGDGPSknotsSpeed over ground
COGDGPSdegCourse over ground
DepthEcho soundermeters200 kHz
Missing or incorrect values are displayed as -999
Navigation data collected by the RV Zeeleeuw from 2009-05-27 07:04:53 to 2009-05-27 17:11:54
                                                                                    Next 1000 lines
Time Latitude Longitude Heading SOG COG Depth
2009-05-27 07:05:03 51°13.663 2°55.955 112.5 0.9 291 4.7
2009-05-27 07:05:08 51°13.664 2°55.953 112.5 1.1 297 4.7
2009-05-27 07:05:12 51°13.665 2°55.95 112.4 1.4 294 4.7
2009-05-27 07:05:18 51°13.666 2°55.947 112.4 1.6 297 4.9
2009-05-27 07:05:24 51°13.667 2°55.942 112.3 1.9 294 -999
2009-05-27 07:05:29 51°13.668 2°55.938 112.3 2.1 296 -999
2009-05-27 07:05:35 51°13.67 2°55.933 112.4 2.2 295 -999
2009-05-27 07:05:41 51°13.672 2°55.927 112.5 2.4 297 -999
2009-05-27 07:05:47 51°13.674 2°55.921 112.5 2.5 295 -999
2009-05-27 07:05:52 51°13.675 2°55.916 112.3 2.6 295 -999
2009-05-27 07:05:56 51°13.676 2°55.911 111.6 2.7 293 -999
2009-05-27 07:06:02 51°13.678 2°55.904 110.9 2.8 293 -999
2009-05-27 07:06:07 51°13.679 2°55.898 109.7 2.8 290 -999
2009-05-27 07:06:11 51°13.681 2°55.894 108.4 2.8 291 -999
2009-05-27 07:06:16 51°13.682 2°55.888 107.4 2.8 289 -999
2009-05-27 07:06:22 51°13.683 2°55.881 106.7 2.7 289 -999
2009-05-27 07:06:27 51°13.684 2°55.875 106 2.7 287 -999
2009-05-27 07:06:32 51°13.686 2°55.87 105.7 2.8 287 -999
2009-05-27 07:06:36 51°13.686 2°55.865 105.5 2.7 287 -999
2009-05-27 07:06:42 51°13.688 2°55.859 105.4 2.7 287 -999
2009-05-27 07:06:47 51°13.689 2°55.853 105.1 2.7 288 -999
2009-05-27 07:06:51 51°13.69 2°55.848 104.6 2.7 287 4.7
2009-05-27 07:06:56 51°13.691 2°55.843 104 2.8 286 -999
2009-05-27 07:07:02 51°13.692 2°55.836 103.3 2.7 286 -999
2009-05-27 07:07:07 51°13.693 2°55.83 102.6 2.8 287 7.8
2009-05-27 07:07:11 51°13.694 2°55.825 101.7 2.8 286 -999
2009-05-27 07:07:16 51°13.695 2°55.819 100.7 2.7 285 -999
2009-05-27 07:07:22 51°13.696 2°55.812 99.9 2.7 285 -999
2009-05-27 07:07:27 51°13.697 2°55.806 98.7 2.6 285 -999
2009-05-27 07:07:31 51°13.698 2°55.802 97.7 2.6 284 -999
2009-05-27 07:07:36 51°13.698 2°55.797 96.7 2.5 283 -999
2009-05-27 07:07:42 51°13.699 2°55.79 95.9 2.4 283 -999
2009-05-27 07:07:47 51°13.7 2°55.785 94.7 2.4 281 10.4
2009-05-27 07:07:51 51°13.7 2°55.781 93.5 2.3 281 10.4
2009-05-27 07:07:56 51°13.701 2°55.776 92.5 2.2 281 10.7
2009-05-27 07:08:01 51°13.701 2°55.772 91.5 2.1 281 10.8
2009-05-27 07:08:06 51°13.702 2°55.767 90.6 1.9 282 11.2
2009-05-27 07:08:11 51°13.703 2°55.764 89.6 1.5 286 11.8
2009-05-27 07:08:16 51°13.703 2°55.762 88.5 0.9 295 12.1
2009-05-27 07:08:20 51°13.703 2°55.762 85.8 0.6 309 12.2
2009-05-27 07:08:25 51°13.704 2°55.761 81.5 0.5 323 12.2
2009-05-27 07:08:30 51°13.705 2°55.76 76.8 0.5 335 12.3
2009-05-27 07:08:35 51°13.705 2°55.76 72.4 0.4 346 12.4
2009-05-27 07:08:40 51°13.706 2°55.76 68.5 0.5 356 12.5
2009-05-27 07:08:44 51°13.707 2°55.76 65 0.5 1 12.5
2009-05-27 07:08:49 51°13.707 2°55.76 60.9 0.5 353 12.4
2009-05-27 07:08:54 51°13.708 2°55.76 58.6 0.4 345 12.4
2009-05-27 07:08:59 51°13.708 2°55.759 56.4 0.4 314 12.4
2009-05-27 07:09:04 51°13.708 2°55.758 54.3 0.5 281 12.4
2009-05-27 07:09:08 51°13.708 2°55.758 52 0.5 275 12.4
2009-05-27 07:09:14 51°13.708 2°55.756 49.8 0.5 270 12.3
2009-05-27 07:09:19 51°13.708 2°55.755 48 0.6 262 12.3
2009-05-27 07:09:23 51°13.708 2°55.754 46 0.6 255 12.2
2009-05-27 07:09:28 51°13.707 2°55.752 44.7 0.7 246 12.3
2009-05-27 07:09:33 51°13.707 2°55.751 43.1 1 238 12.2
2009-05-27 07:09:38 51°13.706 2°55.749 41.5 1.1 234 11.9
2009-05-27 07:09:43 51°13.705 2°55.746 39.7 1.2 228 11.3
2009-05-27 07:09:48 51°13.704 2°55.745 37.9 1.1 226 11.2
2009-05-27 07:09:53 51°13.703 2°55.743 36.6 1 225 11.3
2009-05-27 07:09:58 51°13.702 2°55.742 35.2 0.8 239 4.5
2009-05-27 07:10:04 51°13.702 2°55.741 34.2 0.2 332 -999
2009-05-27 07:10:08 51°13.703 2°55.741 30.7 0.9 2 11.1
2009-05-27 07:10:13 51°13.705 2°55.742 24.8 1.5 10 11.5
2009-05-27 07:10:18 51°13.707 2°55.742 19 2 3 11.6
2009-05-27 07:10:23 51°13.711 2°55.742 9.1 2.4 359 11.6
2009-05-27 07:10:28 51°13.715 2°55.741 2.3 2.8 353 11.2
2009-05-27 07:10:32 51°13.718 2°55.74 353.8 3.3 344 11.6
2009-05-27 07:10:38 51°13.724 2°55.737 346.3 3.6 338 11
2009-05-27 07:10:43 51°13.729 2°55.733 339.9 4 333 10.9
2009-05-27 07:10:48 51°13.734 2°55.728 335.2 4.5 331 11
2009-05-27 07:10:53 51°13.74 2°55.722 331.7 5 328 10.6
2009-05-27 07:10:58 51°13.746 2°55.716 329.6 5.5 328 10.1
2009-05-27 07:11:03 51°13.753 2°55.708 328.9 5.9 326 9.5
2009-05-27 07:11:08 51°13.761 2°55.701 328.5 6.2 327 9.5
2009-05-27 07:11:13 51°13.768 2°55.693 329 6.5 327 9
2009-05-27 07:11:18 51°13.776 2°55.685 330 6.8 329 9.1
2009-05-27 07:11:23 51°13.785 2°55.677 331.5 7 329 8.8
2009-05-27 07:11:28 51°13.793 2°55.669 332 7.2 329 9.3
2009-05-27 07:11:33 51°13.802 2°55.66 331.8 7.4 330 9.3
2009-05-27 07:11:38 51°13.811 2°55.652 331.8 7.6 331 9.3
2009-05-27 07:11:43 51°13.82 2°55.644 332.7 7.7 332 9.4
2009-05-27 07:11:48 51°13.83 2°55.637 334 7.8 334 9.2
2009-05-27 07:11:53 51°13.84 2°55.628 334.1 7.9 332 9.2
2009-05-27 07:11:58 51°13.85 2°55.621 333.9 8 334 9.5
2009-05-27 07:12:03 51°13.86 2°55.613 334.4 8.1 334 9.7
2009-05-27 07:12:08 51°13.87 2°55.605 335.6 8.2 335 9.5
2009-05-27 07:12:13 51°13.88 2°55.598 337.1 8.3 336 9.6
2009-05-27 07:12:18 51°13.891 2°55.59 337 8.4 335 9.7
2009-05-27 07:12:23 51°13.901 2°55.582 336.8 8.4 335 9.6
2009-05-27 07:12:28 51°13.912 2°55.574 337.2 8.4 336 9.7
2009-05-27 07:12:32 51°13.92 2°55.568 336.9 8.5 334 9.7
2009-05-27 07:12:38 51°13.933 2°55.559 336.7 8.5 336 9.7
2009-05-27 07:12:43 51°13.944 2°55.551 336.6 8.6 334 9.7
2009-05-27 07:12:48 51°13.955 2°55.542 336.1 8.6 334 9.8
2009-05-27 07:12:52 51°13.964 2°55.536 336.4 8.6 336 9.8
2009-05-27 07:12:58 51°13.977 2°55.526 336.9 8.7 336 9.8
2009-05-27 07:13:03 51°13.988 2°55.518 336.7 8.7 335 9.7
2009-05-27 07:13:08 51°13.999 2°55.511 336.6 8.7 336 9.7
2009-05-27 07:13:13 51°14.01 2°55.503 337 8.7 335 9.6
2009-05-27 07:13:18 51°14.02 2°55.494 337 8.7 335 9.6
2009-05-27 07:13:23 51°14.031 2°55.486 336.1 8.7 333 9.4
2009-05-27 07:13:28 51°14.042 2°55.478 335.4 8.7 334 9.5
2009-05-27 07:13:32 51°14.051 2°55.471 336.4 8.7 336 9.5
2009-05-27 07:13:38 51°14.064 2°55.462 337.6 8.8 336 9.5
2009-05-27 07:13:43 51°14.075 2°55.454 337.5 8.8 335 9.5
2009-05-27 07:13:48 51°14.086 2°55.446 337.6 8.8 336 9.4
2009-05-27 07:13:53 51°14.098 2°55.438 337.9 8.8 336 9.5
2009-05-27 07:13:58 51°14.109 2°55.429 337.3 9 335 9.4
2009-05-27 07:14:03 51°14.12 2°55.421 336.8 9 335 9.4
2009-05-27 07:14:08 51°14.132 2°55.413 337 9 336 9.4
2009-05-27 07:14:13 51°14.143 2°55.404 337.3 9 335 9.4
2009-05-27 07:14:18 51°14.154 2°55.395 336.6 9 334 9.4
2009-05-27 07:14:23 51°14.165 2°55.387 335.9 9 334 9.4
2009-05-27 07:14:28 51°14.176 2°55.378 335.9 9 334 9.4
2009-05-27 07:14:33 51°14.187 2°55.368 335.3 9 332 9.2
2009-05-27 07:14:38 51°14.198 2°55.358 333.2 8.9 329 9.2
2009-05-27 07:14:43 51°14.208 2°55.347 330.5 9 326 9.5
2009-05-27 07:14:48 51°14.218 2°55.335 327.6 9 324 9.6
2009-05-27 07:14:53 51°14.228 2°55.323 324.5 8.9 321 9.3
2009-05-27 07:14:58 51°14.237 2°55.31 321.5 8.9 319 9.4
2009-05-27 07:15:03 51°14.246 2°55.297 319.3 8.9 317 9.4
2009-05-27 07:15:08 51°14.255 2°55.283 317.9 8.9 316 9.4
2009-05-27 07:15:12 51°14.262 2°55.272 316.3 9 314 9.5
2009-05-27 07:15:18 51°14.272 2°55.254 314.4 9.1 313 9.5
2009-05-27 07:15:23 51°14.281 2°55.239 313.6 9.1 312 9.4
2009-05-27 07:15:28 51°14.289 2°55.224 312.3 9.2 310 9.5
2009-05-27 07:15:33 51°14.297 2°55.208 310.9 9.2 309 9.3
2009-05-27 07:15:38 51°14.305 2°55.192 310.2 9.3 309 9.4
2009-05-27 07:15:43 51°14.313 2°55.176 309.3 9.3 306 9.5
2009-05-27 07:15:48 51°14.32 2°55.159 307.1 9.4 305 9.5
2009-05-27 07:15:53 51°14.328 2°55.141 304.9 9.5 304 9.5
2009-05-27 07:15:58 51°14.335 2°55.124 305 9.5 306 9.7
2009-05-27 07:16:03 51°14.343 2°55.107 305.8 9.6 305 9.6
2009-05-27 07:16:08 51°14.351 2°55.09 306 9.5 306 9.5
2009-05-27 07:16:13 51°14.359 2°55.073 307.1 9.5 308 9.6
2009-05-27 07:16:18 51°14.367 2°55.057 308.1 9.5 307 9.6
2009-05-27 07:16:23 51°14.375 2°55.04 307.9 9.5 307 9.5
2009-05-27 07:16:28 51°14.382 2°55.023 306.8 9.4 306 9.3
2009-05-27 07:16:33 51°14.39 2°55.006 305.8 9.5 306 9.3
2009-05-27 07:16:38 51°14.399 2°54.99 307 9.6 307 9.2
2009-05-27 07:16:43 51°14.407 2°54.973 308.6 9.6 308 9.1
2009-05-27 07:16:48 51°14.415 2°54.956 308.6 9.7 307 9.3
2009-05-27 07:16:53 51°14.423 2°54.939 308.3 9.7 307 9.5
2009-05-27 07:16:58 51°14.432 2°54.922 310 9.7 311 9.5
2009-05-27 07:17:03 51°14.44 2°54.906 311.5 9.8 311 9.8
2009-05-27 07:17:08 51°14.45 2°54.89 315 9.9 316 9.6
2009-05-27 07:17:13 51°14.46 2°54.875 318.5 10.1 316 9.5
2009-05-27 07:17:18 51°14.47 2°54.86 320.2 10.2 318 9.4
2009-05-27 07:17:23 51°14.481 2°54.846 322.4 10.3 320 9.5
2009-05-27 07:17:28 51°14.493 2°54.831 324.9 10.4 323 9.2
2009-05-27 07:17:33 51°14.505 2°54.818 326.9 10.5 324 9.5
2009-05-27 07:17:38 51°14.517 2°54.804 328.9 10.7 325 9.4
2009-05-27 07:17:43 51°14.529 2°54.79 330 10.8 324 9.1
2009-05-27 07:17:48 51°14.541 2°54.777 331.4 10.8 326 9.3
2009-05-27 07:17:53 51°14.554 2°54.764 334.6 10.9 330 9.2
2009-05-27 07:17:58 51°14.567 2°54.752 336.5 11 329 9.2
2009-05-27 07:18:03 51°14.581 2°54.741 337.8 11 333 8.9
2009-05-27 07:18:08 51°14.594 2°54.729 339.3 11 332 8.8
2009-05-27 07:18:12 51°14.605 2°54.72 340.2 11.2 334 9
2009-05-27 07:18:18 51°14.622 2°54.707 341.2 11.3 333 8.8
2009-05-27 07:18:23 51°14.636 2°54.696 341 11.4 334 8.6
2009-05-27 07:18:28 51°14.65 2°54.684 340.5 11.5 332 8.9
2009-05-27 07:18:33 51°14.664 2°54.673 340.4 11.5 334 8.7
2009-05-27 07:18:38 51°14.679 2°54.661 341.1 11.6 333 8.8
2009-05-27 07:18:43 51°14.693 2°54.651 341.9 11.6 335 9
2009-05-27 07:18:48 51°14.708 2°54.639 341.9 11.6 333 8.9
2009-05-27 07:18:53 51°14.723 2°54.628 341.8 11.7 334 8.8
2009-05-27 07:18:58 51°14.737 2°54.615 340.5 11.8 331 8.8
2009-05-27 07:19:03 51°14.751 2°54.603 340 11.8 332 8.9
2009-05-27 07:19:08 51°14.766 2°54.59 339.1 11.9 330 8.7
2009-05-27 07:19:13 51°14.78 2°54.577 338.3 11.7 331 8.3
2009-05-27 07:19:18 51°14.794 2°54.564 338.3 11.7 331 8.7
2009-05-27 07:19:23 51°14.808 2°54.552 338.2 11.7 330 8.5
2009-05-27 07:19:28 51°14.822 2°54.539 337.6 11.7 329 8.4
2009-05-27 07:19:33 51°14.836 2°54.526 336.9 11.7 330 8.8
2009-05-27 07:19:38 51°14.85 2°54.512 336.5 11.7 329 8.4
2009-05-27 07:19:43 51°14.864 2°54.5 337.1 11.6 332 8.6
2009-05-27 07:19:48 51°14.878 2°54.489 337.8 11.6 332 8.5
2009-05-27 07:19:53 51°14.892 2°54.477 338.4 11.5 333 8.1
2009-05-27 07:19:58 51°14.907 2°54.466 339.9 11.5 335 8.4
2009-05-27 07:20:03 51°14.921 2°54.455 340.5 11.5 334 8.1
2009-05-27 07:20:08 51°14.936 2°54.444 341 11.4 336 8
2009-05-27 07:20:13 51°14.95 2°54.434 341.3 11.5 335 8.6
2009-05-27 07:20:18 51°14.964 2°54.424 341.6 11.4 337 9.5
2009-05-27 07:20:23 51°14.979 2°54.413 341.8 11.5 335 9.2
2009-05-27 07:20:28 51°14.994 2°54.403 341.1 11.6 336 9.5
2009-05-27 07:20:33 51°15.008 2°54.392 340.7 11.6 335 9.5
2009-05-27 07:20:38 51°15.023 2°54.381 340.2 11.6 336 9.6
2009-05-27 07:20:43 51°15.038 2°54.371 340.7 11.5 335 9.4
2009-05-27 07:20:48 51°15.052 2°54.36 340.7 11.5 336 9.3
2009-05-27 07:20:53 51°15.067 2°54.35 341.1 11.4 336 9.2
2009-05-27 07:20:58 51°15.081 2°54.34 341.2 11.5 337 9.6
2009-05-27 07:21:03 51°15.096 2°54.33 341.3 11.4 336 9.3
2009-05-27 07:21:08 51°15.11 2°54.319 340.4 11.5 335 9.4
2009-05-27 07:21:12 51°15.122 2°54.311 339.6 11.5 336 9.5
2009-05-27 07:21:18 51°15.139 2°54.298 339.9 11.5 335 9.4
2009-05-27 07:21:23 51°15.153 2°54.288 340.2 11.5 336 9.4
2009-05-27 07:21:28 51°15.168 2°54.277 339.9 11.5 336 9.5
2009-05-27 07:21:33 51°15.182 2°54.267 340 11.4 336 9.2
2009-05-27 07:21:38 51°15.197 2°54.256 340.1 11.3 336 9.5
2009-05-27 07:21:43 51°15.211 2°54.246 340.9 11.3 335 9.6
2009-05-27 07:21:48 51°15.225 2°54.234 339.6 11.4 333 9.6
2009-05-27 07:21:53 51°15.239 2°54.224 338.8 11.3 334 9.9
2009-05-27 07:21:58 51°15.253 2°54.212 338.4 11.3 333 9.5
2009-05-27 07:22:03 51°15.267 2°54.201 337.9 11.3 333 9.5
2009-05-27 07:22:08 51°15.281 2°54.189 337.1 11.3 332 9.3
2009-05-27 07:22:13 51°15.295 2°54.177 336.5 11.3 332 9.3
2009-05-27 07:22:18 51°15.309 2°54.165 336.1 11.3 332 9.3
2009-05-27 07:22:23 51°15.322 2°54.153 335.8 11.4 329 8.7
2009-05-27 07:22:28 51°15.336 2°54.14 335 11.4 330 8.5
2009-05-27 07:22:33 51°15.35 2°54.128 334.5 11.3 330 8.4
2009-05-27 07:22:38 51°15.363 2°54.115 334.9 11.3 330 8.7
2009-05-27 07:22:43 51°15.377 2°54.102 334.7 11.4 329 8.7
2009-05-27 07:22:48 51°15.39 2°54.089 334.3 11.4 328 8.6
2009-05-27 07:22:53 51°15.404 2°54.076 334 11.4 329 9
2009-05-27 07:22:58 51°15.417 2°54.063 333.6 11.5 329 8.8
2009-05-27 07:23:03 51°15.431 2°54.05 334 11.5 330 8.9
2009-05-27 07:23:08 51°15.445 2°54.037 334.3 11.5 329 8.9
2009-05-27 07:23:13 51°15.459 2°54.025 334.6 11.4 330 9.1
2009-05-27 07:23:18 51°15.473 2°54.012 335 11.4 330 9.1
2009-05-27 07:23:23 51°15.486 2°54 335 11.5 330 9.4
2009-05-27 07:23:28 51°15.5 2°53.987 334.7 11.5 331 9.3
2009-05-27 07:23:33 51°15.514 2°53.975 334.9 11.5 330 9.1
2009-05-27 07:23:38 51°15.528 2°53.962 334.9 11.4 331 9.2
2009-05-27 07:23:43 51°15.542 2°53.95 334.9 11.5 330 9.4
2009-05-27 07:23:48 51°15.556 2°53.937 335 11.5 331 9.7
2009-05-27 07:23:53 51°15.57 2°53.925 335 11.5 330 9.3
2009-05-27 07:23:58 51°15.583 2°53.912 334.4 11.5 330 9.4
2009-05-27 07:24:03 51°15.597 2°53.899 334.1 11.5 330 9.5
2009-05-27 07:24:08 51°15.61 2°53.886 334 11.4 330 9.5
2009-05-27 07:24:12 51°15.622 2°53.877 334.4 11.5 330 9.6
2009-05-27 07:24:18 51°15.638 2°53.861 334 11.5 330 9.7
2009-05-27 07:24:23 51°15.652 2°53.848 333.9 11.5 330 9.5
2009-05-27 07:24:28 51°15.666 2°53.836 334.1 11.5 330 9.6
2009-05-27 07:24:33 51°15.68 2°53.823 334.1 11.4 330 9.7
2009-05-27 07:24:38 51°15.693 2°53.81 333.4 11.4 329 10
2009-05-27 07:24:43 51°15.707 2°53.797 334.4 11.5 329 9.8
2009-05-27 07:24:48 51°15.72 2°53.784 334 11.5 328 9.5
2009-05-27 07:24:53 51°15.734 2°53.77 333.8 11.6 327 9.7
2009-05-27 07:24:58 51°15.748 2°53.756 333.7 11.6 328 9.7
2009-05-27 07:25:03 51°15.761 2°53.742 333.5 11.7 328 10.2
2009-05-27 07:25:08 51°15.775 2°53.729 333.9 11.7 328 10.3
2009-05-27 07:25:13 51°15.788 2°53.715 334.1 11.5 328 9.7
2009-05-27 07:25:18 51°15.802 2°53.702 334 11.5 329 10
2009-05-27 07:25:23 51°15.816 2°53.688 333.9 11.6 327 10.5
2009-05-27 07:25:28 51°15.829 2°53.675 334.1 11.6 329 10
2009-05-27 07:25:33 51°15.843 2°53.661 334.3 11.6 327 10.4
2009-05-27 07:25:38 51°15.856 2°53.648 334.2 11.4 329 10.1
2009-05-27 07:25:43 51°15.87 2°53.634 334 11.5 327 10
2009-05-27 07:25:48 51°15.883 2°53.621 334 11.5 329 10.1
2009-05-27 07:25:53 51°15.897 2°53.608 333.9 11.6 328 10.1
2009-05-27 07:25:58 51°15.911 2°53.594 334 11.5 328 10
2009-05-27 07:26:03 51°15.924 2°53.581 334 11.5 328 10.3
2009-05-27 07:26:08 51°15.938 2°53.568 334.2 11.4 329 10.3
2009-05-27 07:26:13 51°15.951 2°53.555 334.6 11.5 329 10.4
2009-05-27 07:26:18 51°15.965 2°53.541 334.5 11.5 328 10.2
2009-05-27 07:26:23 51°15.978 2°53.528 333.9 11.5 328 10.3
2009-05-27 07:26:28 51°15.992 2°53.514 333.8 11.5 328 10.4
2009-05-27 07:26:33 51°16.005 2°53.501 333.8 11.6 328 10.4
2009-05-27 07:26:38 51°16.019 2°53.487 334 11.6 328 10.3
2009-05-27 07:26:43 51°16.033 2°53.474 334.4 11.5 329 10.3
2009-05-27 07:26:48 51°16.047 2°53.46 334.2 11.6 328 10.3
2009-05-27 07:26:53 51°16.06 2°53.447 334.3 11.7 327 10.4
2009-05-27 07:26:58 51°16.074 2°53.433 333.6 11.7 328 10.4
2009-05-27 07:27:03 51°16.088 2°53.419 333.9 11.7 328 10.8
2009-05-27 07:27:08 51°16.102 2°53.406 334.1 11.7 329 10.5
2009-05-27 07:27:12 51°16.112 2°53.395 334.2 11.6 328 10.4
2009-05-27 07:27:18 51°16.129 2°53.379 334.3 11.7 329 10.5
2009-05-27 07:27:23 51°16.143 2°53.365 334.6 11.7 328 10.8
2009-05-27 07:27:28 51°16.157 2°53.351 334.7 11.7 329 10.7
2009-05-27 07:27:33 51°16.171 2°53.338 334.5 11.7 328 10.4
2009-05-27 07:27:38 51°16.184 2°53.324 334 11.7 328 10.7
2009-05-27 07:27:43 51°16.198 2°53.31 334.4 11.7 328 10.5
2009-05-27 07:27:48 51°16.212 2°53.297 334 11.7 328 10.7
2009-05-27 07:27:53 51°16.226 2°53.283 334.8 11.7 329 10.6
2009-05-27 07:27:58 51°16.24 2°53.27 334.7 11.8 328 10.8
2009-05-27 07:28:03 51°16.254 2°53.256 334 11.7 328 10.7
2009-05-27 07:28:08 51°16.267 2°53.242 334 11.8 327 10.7
2009-05-27 07:28:13 51°16.281 2°53.228 334.1 11.7 328 10.6
2009-05-27 07:28:18 51°16.294 2°53.214 333.9 11.7 327 10.7
2009-05-27 07:28:23 51°16.308 2°53.2 333.2 11.6 329 10.7
2009-05-27 07:28:28 51°16.322 2°53.187 333.7 11.7 327 10.6
2009-05-27 07:28:33 51°16.335 2°53.173 333 11.6 328 11.1
2009-05-27 07:28:38 51°16.35 2°53.159 333.7 11.6 329 10.7
2009-05-27 07:28:43 51°16.364 2°53.147 335.4 11.6 331 10.9
2009-05-27 07:28:48 51°16.377 2°53.134 336.1 11.5 331 10.7
2009-05-27 07:28:53 51°16.392 2°53.121 336.8 11.6 330 10.8
2009-05-27 07:28:58 51°16.406 2°53.11 337.1 11.6 333 11.1
2009-05-27 07:29:03 51°16.42 2°53.097 337.1 11.6 331 10.5
2009-05-27 07:29:08 51°16.434 2°53.086 337.3 11.5 334 11.1
2009-05-27 07:29:13 51°16.448 2°53.074 338.1 11.5 332 10.7
2009-05-27 07:29:18 51°16.462 2°53.063 338.3 11.4 334 10.5
2009-05-27 07:29:23 51°16.476 2°53.051 338.9 11.4 332 10.5
2009-05-27 07:29:28 51°16.491 2°53.04 338.5 11.4 334 10.6
2009-05-27 07:29:33 51°16.505 2°53.029 339.2 11.4 333 10.6
2009-05-27 07:29:38 51°16.519 2°53.018 339.2 11.5 334 10.8
2009-05-27 07:29:43 51°16.533 2°53.007 339.3 11.5 334 10.6
2009-05-27 07:29:48 51°16.548 2°52.995 339.8 11.5 334 10.8
2009-05-27 07:29:53 51°16.562 2°52.984 340 11.5 335 10.6
2009-05-27 07:29:58 51°16.576 2°52.973 340 11.6 335 10.5
2009-05-27 07:30:03 51°16.591 2°52.962 340.5 11.6 334 10.6
2009-05-27 07:30:08 51°16.605 2°52.951 340.4 11.6 335 10.6
2009-05-27 07:30:12 51°16.617 2°52.942 340.2 11.6 334 10.4
2009-05-27 07:30:18 51°16.635 2°52.929 340.4 11.6 334 10.3
2009-05-27 07:30:23 51°16.649 2°52.918 339.7 11.6 333 10.6
2009-05-27 07:30:28 51°16.664 2°52.907 339.7 11.6 334 10.1
2009-05-27 07:30:33 51°16.678 2°52.896 339.8 11.6 335 9.8
2009-05-27 07:30:38 51°16.692 2°52.885 339.9 11.6 334 10.1
2009-05-27 07:30:43 51°16.707 2°52.874 339.9 11.5 335 9.6
2009-05-27 07:30:48 51°16.721 2°52.863 339.7 11.5 334 9.7
2009-05-27 07:30:53 51°16.736 2°52.851 339.7 11.5 334 9.5
2009-05-27 07:30:58 51°16.75 2°52.84 340 11.5 334 9.3
2009-05-27 07:31:03 51°16.764 2°52.83 339.9 11.4 335 8.8
2009-05-27 07:31:08 51°16.779 2°52.819 340.2 11.4 335 8.9
2009-05-27 07:31:13 51°16.793 2°52.808 340 11.4 335 8.8
2009-05-27 07:31:18 51°16.808 2°52.798 340.4 11.4 337 8.6
2009-05-27 07:31:23 51°16.822 2°52.787 340.5 11.4 335 8.4
2009-05-27 07:31:28 51°16.836 2°52.777 339.8 11.3 335 8.3
2009-05-27 07:31:33 51°16.85 2°52.766 338.8 11.4 335 8.4
2009-05-27 07:31:38 51°16.865 2°52.755 339.4 11.4 335 8.1
2009-05-27 07:31:43 51°16.879 2°52.744 339 11.4 334 8.3
2009-05-27 07:31:48 51°16.893 2°52.734 339.3 11.4 335 8.5
2009-05-27 07:31:53 51°16.908 2°52.723 339.8 11.3 335 8.5
2009-05-27 07:31:58 51°16.922 2°52.712 339.9 11.3 334 8.6
2009-05-27 07:32:03 51°16.936 2°52.702 339.9 11.4 336 8.9
2009-05-27 07:32:08 51°16.95 2°52.69 339.8 11.4 334 8.6
2009-05-27 07:32:13 51°16.965 2°52.681 340.5 11.3 337 8.9
2009-05-27 07:32:18 51°16.979 2°52.67 339.5 11.4 334 9.1
2009-05-27 07:32:23 51°16.994 2°52.659 339.3 11.3 335 8.6
2009-05-27 07:32:28 51°17.008 2°52.649 339.8 11.3 335 8.8
2009-05-27 07:32:33 51°17.022 2°52.638 339.2 11.4 334 8.7
2009-05-27 07:32:38 51°17.036 2°52.626 338.5 11.4 334 8.9
2009-05-27 07:32:43 51°17.05 2°52.615 339 11.4 334 8.5
2009-05-27 07:32:48 51°17.065 2°52.605 339 11.5 335 8.5
2009-05-27 07:32:53 51°17.079 2°52.594 339.7 11.3 334 8.3
2009-05-27 07:32:58 51°17.093 2°52.583 339.9 11.3 335 8.3
2009-05-27 07:33:03 51°17.108 2°52.573 340 11.3 335 8.6
2009-05-27 07:33:08 51°17.122 2°52.562 339.9 11.4 335 8.6
2009-05-27 07:33:12 51°17.133 2°52.553 339.5 11.4 335 8.6
2009-05-27 07:33:18 51°17.151 2°52.541 339.5 11.4 335 8.9
2009-05-27 07:33:23 51°17.165 2°52.53 339.4 11.5 334 8.8
2009-05-27 07:33:28 51°17.179 2°52.519 339.5 11.5 334 8.9
2009-05-27 07:33:33 51°17.193 2°52.508 339.6 11.4 335 8.7
2009-05-27 07:33:38 51°17.208 2°52.497 339.9 11.5 335 8.6
2009-05-27 07:33:43 51°17.223 2°52.486 340 11.5 335 8.9
2009-05-27 07:33:48 51°17.237 2°52.475 339.9 11.5 335 9
2009-05-27 07:33:53 51°17.251 2°52.465 340.2 11.5 334 9.1
2009-05-27 07:33:58 51°17.266 2°52.454 340.3 11.5 335 8.9
2009-05-27 07:34:03 51°17.28 2°52.443 339.8 11.5 334 9
2009-05-27 07:34:08 51°17.295 2°52.432 339.3 11.4 335 9.2
2009-05-27 07:34:13 51°17.309 2°52.421 340.1 11.5 334 9.5
2009-05-27 07:34:18 51°17.324 2°52.41 339.6 11.4 334 9.1
2009-05-27 07:34:23 51°17.338 2°52.398 338.9 11.4 333 9.4
2009-05-27 07:34:28 51°17.351 2°52.385 336.3 11.4 330 9.4
2009-05-27 07:34:33 51°17.365 2°52.373 335.8 11.4 330 9
2009-05-27 07:34:38 51°17.379 2°52.359 334 11.5 328 9.5
2009-05-27 07:34:43 51°17.392 2°52.346 332.9 11.3 327 9
2009-05-27 07:34:48 51°17.405 2°52.333 332.5 11.3 329 9.1
2009-05-27 07:34:53 51°17.418 2°52.319 332.4 11.4 324 9.2
2009-05-27 07:34:58 51°17.432 2°52.305 331.1 11.3 327 9.2
2009-05-27 07:35:03 51°17.444 2°52.291 330.6 11.4 325 9.3
2009-05-27 07:35:08 51°17.457 2°52.277 330.3 11.4 326 9.4
2009-05-27 07:35:13 51°17.47 2°52.262 329.8 11.3 325 9.4
2009-05-27 07:35:18 51°17.483 2°52.247 329.2 11.3 325 9.4
2009-05-27 07:35:23 51°17.496 2°52.233 329.1 11.3 324 9.7
2009-05-27 07:35:28 51°17.509 2°52.218 328.8 11.4 324 9.5
2009-05-27 07:35:33 51°17.522 2°52.203 328.9 11.4 324 10
2009-05-27 07:35:38 51°17.535 2°52.189 328.9 11.4 326 9.9
2009-05-27 07:35:43 51°17.547 2°52.174 328.8 11.4 323 9.5
2009-05-27 07:35:48 51°17.56 2°52.16 328.9 11.4 325 9.9
2009-05-27 07:35:53 51°17.573 2°52.144 329.2 11.5 323 10
2009-05-27 07:35:58 51°17.586 2°52.13 329.2 11.5 326 9.9
2009-05-27 07:36:03 51°17.599 2°52.116 329.6 11.6 325 9.7
2009-05-27 07:36:08 51°17.613 2°52.101 330 11.5 326 9.5
2009-05-27 07:36:12 51°17.623 2°52.09 329.7 11.3 327 9.4
2009-05-27 07:36:18 51°17.639 2°52.074 330.3 11.3 326 9.8
2009-05-27 07:36:23 51°17.651 2°52.059 329.3 11.3 324 9.6
2009-05-27 07:36:28 51°17.664 2°52.044 329.1 11.4 325 9.7
2009-05-27 07:36:33 51°17.677 2°52.029 329.3 11.3 323 9
2009-05-27 07:36:38 51°17.69 2°52.015 328.9 11.3 325 9.4
2009-05-27 07:36:43 51°17.702 2°52.001 329.3 11.3 325 9.1
2009-05-27 07:36:48 51°17.715 2°51.986 329.6 11.3 326 9
2009-05-27 07:36:53 51°17.728 2°51.972 329.8 11.4 324 9
2009-05-27 07:36:58 51°17.741 2°51.957 329.7 11.4 325 9.1
2009-05-27 07:37:03 51°17.754 2°51.943 329.6 11.4 324 9
2009-05-27 07:37:08 51°17.767 2°51.929 329.7 11.3 326 8.5
2009-05-27 07:37:13 51°17.78 2°51.914 330.3 11.4 325 9.2
2009-05-27 07:37:18 51°17.793 2°51.9 329.6 11.4 324 9.5
2009-05-27 07:37:23 51°17.805 2°51.885 328.8 11.4 325 9.1
2009-05-27 07:37:28 51°17.819 2°51.87 329.8 11.4 325 9
2009-05-27 07:37:33 51°17.831 2°51.856 329.4 11.4 324 9.4
2009-05-27 07:37:38 51°17.844 2°51.841 329.2 11.4 325 9
2009-05-27 07:37:43 51°17.857 2°51.827 329.9 11.5 324 9.3
2009-05-27 07:37:48 51°17.871 2°51.812 329.9 11.5 325 9.3
2009-05-27 07:37:53 51°17.884 2°51.797 330.1 11.5 325 8.7
2009-05-27 07:37:58 51°17.897 2°51.784 330.5 11.5 327 9
2009-05-27 07:38:03 51°17.91 2°51.769 330.8 11.6 324 9.3
2009-05-27 07:38:08 51°17.923 2°51.754 330.4 11.6 325 9.3
2009-05-27 07:38:13 51°17.936 2°51.739 329.7 11.5 325 9
2009-05-27 07:38:18 51°17.949 2°51.725 329.9 11.5 326 8.9
2009-05-27 07:38:23 51°17.962 2°51.711 330.3 11.3 327 9.3
2009-05-27 07:38:28 51°17.976 2°51.698 331.1 11.3 327 9.1
2009-05-27 07:38:33 51°17.988 2°51.682 330.4 11.4 324 9.5
2009-05-27 07:38:38 51°18.001 2°51.668 329.9 11.4 325 9.4
2009-05-27 07:38:43 51°18.014 2°51.653 329.6 11.5 325 9.6
2009-05-27 07:38:48 51°18.027 2°51.638 329.6 11.5 324 9.6
2009-05-27 07:38:53 51°18.04 2°51.624 330.3 11.5 327 9.7
2009-05-27 07:38:58 51°18.053 2°51.609 330.3 11.5 324 9.6
2009-05-27 07:39:03 51°18.067 2°51.595 330.3 11.6 327 10
2009-05-27 07:39:08 51°18.08 2°51.581 331 11.7 326 10
2009-05-27 07:39:12 51°18.091 2°51.569 330 11.5 325 9.6
2009-05-27 07:39:18 51°18.106 2°51.551 330.4 11.5 325 9.8
2009-05-27 07:39:23 51°18.119 2°51.537 330.2 11.5 325 10.5
2009-05-27 07:39:28 51°18.133 2°51.522 329.9 11.5 326 9.9
2009-05-27 07:39:33 51°18.146 2°51.508 330.7 11.5 326 10.5
2009-05-27 07:39:38 51°18.159 2°51.494 330.8 11.5 325 10.6
2009-05-27 07:39:43 51°18.172 2°51.478 329.6 11.6 323 10.6
2009-05-27 07:39:48 51°18.185 2°51.463 329.2 11.6 324 10.6
2009-05-27 07:39:53 51°18.198 2°51.448 329.6 11.6 324 11
2009-05-27 07:39:58 51°18.211 2°51.433 329.2 11.7 325 10.8
2009-05-27 07:40:03 51°18.224 2°51.418 330.1 11.7 324 10.9
2009-05-27 07:40:08 51°18.237 2°51.403 329.9 11.7 325 11.3
2009-05-27 07:40:13 51°18.251 2°51.389 330 11.7 325 11.3
2009-05-27 07:40:18 51°18.264 2°51.373 330.4 11.7 324 11
2009-05-27 07:40:23 51°18.277 2°51.359 330.3 11.7 325 11.2
2009-05-27 07:40:28 51°18.29 2°51.343 330.7 11.7 324 11.5
2009-05-27 07:40:33 51°18.303 2°51.328 330.3 11.7 325 11.5
2009-05-27 07:40:38 51°18.317 2°51.312 330.3 11.8 323 11.6
2009-05-27 07:40:43 51°18.33 2°51.297 329.6 11.6 324 11.2
2009-05-27 07:40:48 51°18.342 2°51.282 329.3 11.6 324 11.6
2009-05-27 07:40:53 51°18.356 2°51.268 329.6 11.6 326 11.9
2009-05-27 07:40:58 51°18.369 2°51.253 330.1 11.6 323 11.7
2009-05-27 07:41:03 51°18.382 2°51.238 328.8 11.6 324 12.1
2009-05-27 07:41:08 51°18.395 2°51.223 329.8 11.6 325 11.8
2009-05-27 07:41:13 51°18.408 2°51.208 329.8 11.7 322 12.3
2009-05-27 07:41:18 51°18.421 2°51.192 328.9 11.6 325 12
2009-05-27 07:41:23 51°18.434 2°51.178 330.1 11.6 324 12.5
2009-05-27 07:41:28 51°18.447 2°51.163 330.7 11.5 325 12.2
2009-05-27 07:41:33 51°18.46 2°51.148 330.2 11.6 324 12.8
2009-05-27 07:41:38 51°18.473 2°51.133 330.2 11.6 324 12.3
2009-05-27 07:41:43 51°18.487 2°51.118 331.1 11.5 326 12.4
2009-05-27 07:41:48 51°18.5 2°51.103 330.8 11.6 324 12.3
2009-05-27 07:41:53 51°18.513 2°51.088 330.3 11.7 325 12.9
2009-05-27 07:41:58 51°18.526 2°51.073 330.5 11.6 323 12.6
2009-05-27 07:42:03 51°18.539 2°51.058 330.1 11.7 325 12.7
2009-05-27 07:42:08 51°18.552 2°51.043 330.4 11.7 323 12.9
2009-05-27 07:42:12 51°18.563 2°51.03 329.9 11.7 324 12.6
2009-05-27 07:42:18 51°18.578 2°51.012 330 11.7 324 12.6
2009-05-27 07:42:23 51°18.592 2°50.997 330.2 11.7 325 12.8
2009-05-27 07:42:28 51°18.605 2°50.982 330.4 11.7 325 12.9
2009-05-27 07:42:33 51°18.618 2°50.966 330.1 11.6 323 12.5
2009-05-27 07:42:38 51°18.631 2°50.951 330.5 11.7 323 12.9
2009-05-27 07:42:43 51°18.644 2°50.936 330.2 11.6 325 12.5
2009-05-27 07:42:48 51°18.657 2°50.922 330.6 11.7 325 13.2
2009-05-27 07:42:53 51°18.67 2°50.907 330.3 11.5 324 13.1
2009-05-27 07:42:58 51°18.683 2°50.892 330.1 11.6 323 13.2
2009-05-27 07:43:03 51°18.696 2°50.876 329.9 11.7 323 13.3
2009-05-27 07:43:08 51°18.709 2°50.861 329.3 11.6 324 13.1
2009-05-27 07:43:13 51°18.723 2°50.847 329.8 11.6 325 13.3
2009-05-27 07:43:18 51°18.735 2°50.832 330.3 11.6 324 13.2
2009-05-27 07:43:23 51°18.749 2°50.816 330 11.5 323 13.2
2009-05-27 07:43:28 51°18.761 2°50.801 329.2 11.6 323 13.1
2009-05-27 07:43:33 51°18.775 2°50.786 330.5 11.6 323 13.4
2009-05-27 07:43:38 51°18.787 2°50.77 329.6 11.7 323 13.3
2009-05-27 07:43:43 51°18.801 2°50.755 329.3 11.7 323 13.5
2009-05-27 07:43:48 51°18.814 2°50.739 329.7 11.7 324 13.2
2009-05-27 07:43:53 51°18.827 2°50.723 329.5 11.8 323 13.4
2009-05-27 07:43:58 51°18.84 2°50.708 328.9 11.7 324 13.1
2009-05-27 07:44:03 51°18.853 2°50.693 329.8 11.7 323 13.2
2009-05-27 07:44:08 51°18.866 2°50.678 329.5 11.8 325 13.7
2009-05-27 07:44:13 51°18.879 2°50.662 329.8 11.7 324 13.3
2009-05-27 07:44:18 51°18.893 2°50.648 330.6 11.7 324 13.3
2009-05-27 07:44:23 51°18.906 2°50.633 330.1 11.7 324 13.8
2009-05-27 07:44:28 51°18.919 2°50.618 330.1 11.6 325 13.1
2009-05-27 07:44:33 51°18.932 2°50.603 330.8 11.7 325 13.5
2009-05-27 07:44:38 51°18.945 2°50.587 330.5 11.7 323 13.3
2009-05-27 07:44:43 51°18.958 2°50.572 330 11.7 324 13.3
2009-05-27 07:44:48 51°18.971 2°50.557 330.3 11.7 323 13.6
2009-05-27 07:44:53 51°18.985 2°50.542 330.6 11.6 326 12.8
2009-05-27 07:44:58 51°18.998 2°50.527 331.1 11.6 324 12.7
2009-05-27 07:45:03 51°19.011 2°50.512 331 11.6 325 13
2009-05-27 07:45:08 51°19.024 2°50.497 331 11.7 323 12.6
2009-05-27 07:45:12 51°19.035 2°50.484 330.9 11.5 325 12.2
2009-05-27 07:45:18 51°19.05 2°50.467 330.9 11.6 325 12.5
2009-05-27 07:45:23 51°19.063 2°50.452 331.1 11.5 325 12.7
2009-05-27 07:45:28 51°19.076 2°50.438 331.2 11.3 326 11.9
2009-05-27 07:45:33 51°19.09 2°50.424 331.2 11.4 325 12.3
2009-05-27 07:45:38 51°19.102 2°50.409 330.4 11.5 323 12.2
2009-05-27 07:45:43 51°19.115 2°50.394 330.6 11.5 326 11.8
2009-05-27 07:45:48 51°19.128 2°50.379 331.1 11.6 323 11.6
2009-05-27 07:45:53 51°19.141 2°50.364 330.6 11.6 324 11.7
2009-05-27 07:45:58 51°19.154 2°50.348 330.7 11.7 324 11.8
2009-05-27 07:46:03 51°19.167 2°50.333 330.4 11.7 323 11.5
2009-05-27 07:46:08 51°19.18 2°50.318 330.2 11.7 324 11.4
2009-05-27 07:46:13 51°19.194 2°50.302 330.4 11.7 323 11.1
2009-05-27 07:46:18 51°19.206 2°50.286 329.5 11.8 322 10.8
2009-05-27 07:46:23 51°19.22 2°50.271 329.9 11.7 323 11
2009-05-27 07:46:28 51°19.233 2°50.255 329.6 11.8 322 10.7
2009-05-27 07:46:33 51°19.246 2°50.24 329.3 11.6 324 10.6
2009-05-27 07:46:38 51°19.259 2°50.225 329.8 11.7 324 10.9
2009-05-27 07:46:43 51°19.272 2°50.21 330.8 11.7 323 10.5
2009-05-27 07:46:48 51°19.285 2°50.195 330.2 11.6 325 11
2009-05-27 07:46:53 51°19.298 2°50.18 330.6 11.6 324 10.2
2009-05-27 07:46:58 51°19.311 2°50.166 329.6 11.4 325 9.9
2009-05-27 07:47:03 51°19.324 2°50.15 331 11.6 322 10.3
2009-05-27 07:47:08 51°19.336 2°50.135 329.6 11.6 323 10.2
2009-05-27 07:47:13 51°19.349 2°50.12 329.7 11.5 325 10.4
2009-05-27 07:47:18 51°19.362 2°50.104 330.3 11.6 323 10
2009-05-27 07:47:23 51°19.375 2°50.089 329.8 11.6 324 10.5
2009-05-27 07:47:28 51°19.388 2°50.074 330.8 11.7 323 10.2
2009-05-27 07:47:33 51°19.401 2°50.058 329.3 11.7 323 10
2009-05-27 07:47:38 51°19.414 2°50.043 329.9 11.7 325 10.1
2009-05-27 07:47:43 51°19.428 2°50.027 330.3 11.8 324 10.6
2009-05-27 07:47:48 51°19.441 2°50.012 330.6 11.9 325 11.3
2009-05-27 07:47:53 51°19.454 2°49.996 330.9 11.9 324 11.1
2009-05-27 07:47:58 51°19.468 2°49.981 330.8 11.9 325 11.7
2009-05-27 07:48:03 51°19.481 2°49.966 330.9 11.9 324 12
2009-05-27 07:48:08 51°19.495 2°49.951 331 11.8 325 12.1
2009-05-27 07:48:13 51°19.508 2°49.935 330.7 11.9 325 12.3
2009-05-27 07:48:18 51°19.522 2°49.921 331.4 11.8 326 12.7
2009-05-27 07:48:23 51°19.535 2°49.905 330.3 11.7 325 12.4
2009-05-27 07:48:28 51°19.548 2°49.891 331 11.6 326 12.7
2009-05-27 07:48:33 51°19.562 2°49.876 331 11.7 325 12.7
2009-05-27 07:48:38 51°19.575 2°49.861 330.8 11.7 325 12.8
2009-05-27 07:48:43 51°19.588 2°49.846 331 11.8 324 13.1
2009-05-27 07:48:48 51°19.602 2°49.831 331 11.7 325 12.9
2009-05-27 07:48:53 51°19.614 2°49.815 330.6 11.7 324 13
2009-05-27 07:48:58 51°19.628 2°49.8 330.8 11.8 324 12.8
2009-05-27 07:49:03 51°19.641 2°49.784 330.1 11.7 324 12.6
2009-05-27 07:49:08 51°19.655 2°49.77 330.5 11.8 325 13.4
2009-05-27 07:49:13 51°19.668 2°49.754 330 11.8 324 12.7
2009-05-27 07:49:18 51°19.681 2°49.739 329.2 11.7 323 13.2
2009-05-27 07:49:23 51°19.694 2°49.724 329.8 11.7 324 13.2
2009-05-27 07:49:28 51°19.707 2°49.709 329.6 11.8 323 14
2009-05-27 07:49:33 51°19.72 2°49.693 329.6 11.7 325 13.7
2009-05-27 07:49:38 51°19.734 2°49.679 330.3 11.7 325 13.9
2009-05-27 07:49:43 51°19.747 2°49.664 330.9 11.7 324 14.3
2009-05-27 07:49:48 51°19.76 2°49.649 330.4 11.7 324 14.8
2009-05-27 07:49:53 51°19.773 2°49.634 330 11.8 324 14.9
2009-05-27 07:49:58 51°19.786 2°49.618 329.7 11.8 324 14.9
2009-05-27 07:50:03 51°19.8 2°49.603 330.1 11.8 324 15.1
2009-05-27 07:50:08 51°19.813 2°49.587 330.2 11.8 323 15.3
2009-05-27 07:50:13 51°19.826 2°49.572 329.9 11.8 324 15.6
2009-05-27 07:50:18 51°19.839 2°49.557 330.3 11.7 325 15.7
2009-05-27 07:50:23 51°19.852 2°49.542 330.6 11.8 323 16
2009-05-27 07:50:28 51°19.866 2°49.526 329.5 11.8 324 16.5
2009-05-27 07:50:33 51°19.879 2°49.512 329.5 11.7 326 16
2009-05-27 07:50:38 51°19.892 2°49.497 331.2 11.7 323 16.2
2009-05-27 07:50:43 51°19.905 2°49.481 329.8 11.6 323 16.5
2009-05-27 07:50:48 51°19.918 2°49.467 329.7 11.6 325 17.3
2009-05-27 07:50:53 51°19.931 2°49.452 330 11.5 325 16.8
2009-05-27 07:50:58 51°19.944 2°49.437 330.9 11.5 324 17.1
2009-05-27 07:51:03 51°19.957 2°49.422 330 11.5 324 16.9
2009-05-27 07:51:08 51°19.97 2°49.407 330.3 11.5 323 17.7
2009-05-27 07:51:13 51°19.983 2°49.392 330.1 11.5 324 17.4
2009-05-27 07:51:18 51°19.995 2°49.377 329.5 11.6 323 18.2
2009-05-27 07:51:23 51°20.009 2°49.362 329.9 11.5 325 17.7
2009-05-27 07:51:28 51°20.021 2°49.347 330.6 11.4 324 18.2
2009-05-27 07:51:32 51°20.031 2°49.335 330.3 11.5 324 19.1
2009-05-27 07:51:38 51°20.047 2°49.317 330.3 11.3 326 18.7
2009-05-27 07:51:43 51°20.06 2°49.303 331.6 11.4 323 19.3
2009-05-27 07:51:48 51°20.072 2°49.287 329.8 11.4 321 19.4
2009-05-27 07:51:53 51°20.085 2°49.272 329.7 11.4 324 19.2
2009-05-27 07:51:58 51°20.098 2°49.257 330.2 11.4 322 19.7
2009-05-27 07:52:03 51°20.11 2°49.242 329 11.2 324 19.2
2009-05-27 07:52:08 51°20.123 2°49.227 329.6 11.4 323 19.8
2009-05-27 07:52:13 51°20.135 2°49.212 329.7 11.4 323 19.9
2009-05-27 07:52:18 51°20.148 2°49.197 329.7 11.5 322 20.1
2009-05-27 07:52:23 51°20.16 2°49.181 329.7 11.7 321 20.4
2009-05-27 07:52:28 51°20.173 2°49.165 329.9 11.7 323 20.7
2009-05-27 07:52:33 51°20.186 2°49.15 330.2 11.6 323 20.8
2009-05-27 07:52:38 51°20.199 2°49.135 331.1 11.6 324 21.1
2009-05-27 07:52:43 51°20.212 2°49.119 330.9 11.7 323 21
2009-05-27 07:52:48 51°20.226 2°49.104 330.7 11.7 324 21
2009-05-27 07:52:53 51°20.238 2°49.089 329.3 11.6 325 20.9
2009-05-27 07:52:58 51°20.252 2°49.074 330.5 11.7 323 21.1
2009-05-27 07:53:03 51°20.265 2°49.058 330.3 11.8 323 21.2
2009-05-27 07:53:08 51°20.278 2°49.043 330.3 11.8 323 21.5
2009-05-27 07:53:13 51°20.291 2°49.026 329.9 11.8 322 21.1
2009-05-27 07:53:18 51°20.304 2°49.011 329.3 11.7 325 21.2
2009-05-27 07:53:23 51°20.317 2°48.996 330.2 11.7 324 22.2
2009-05-27 07:53:28 51°20.33 2°48.981 330.3 11.5 325 21.5
2009-05-27 07:53:32 51°20.34 2°48.969 330.6 11.6 325 21.9
2009-05-27 07:53:38 51°20.356 2°48.95 330.3 11.6 323 21.7
2009-05-27 07:53:43 51°20.369 2°48.935 331.1 11.7 324 21.3
2009-05-27 07:53:48 51°20.382 2°48.92 330.3 11.7 323 21.9
2009-05-27 07:53:53 51°20.395 2°48.904 330.6 11.8 324 21.7
2009-05-27 07:53:58 51°20.408 2°48.888 330.9 11.8 323 21.2
2009-05-27 07:54:03 51°20.421 2°48.873 330.1 11.6 324 21.3
2009-05-27 07:54:08 51°20.434 2°48.858 330.5 11.7 322 21.2
2009-05-27 07:54:13 51°20.447 2°48.842 330 11.7 323 21.7
2009-05-27 07:54:18 51°20.46 2°48.826 329.8 11.7 322 21.2
2009-05-27 07:54:23 51°20.473 2°48.81 330.3 11.8 322 21.4
2009-05-27 07:54:28 51°20.486 2°48.794 329.6 11.9 322 21.5
2009-05-27 07:54:33 51°20.499 2°48.778 329.9 11.9 322 21.3
2009-05-27 07:54:38 51°20.512 2°48.762 329.6 11.8 323 21
2009-05-27 07:54:43 51°20.525 2°48.746 329.9 11.8 323 21.4
2009-05-27 07:54:48 51°20.538 2°48.731 329.9 11.9 323 21.5
2009-05-27 07:54:53 51°20.551 2°48.714 329.5 11.8 320 21
2009-05-27 07:54:58 51°20.564 2°48.698 328.6 11.8 322 21
2009-05-27 07:55:03 51°20.577 2°48.682 329 11.8 321 21.7
2009-05-27 07:55:08 51°20.589 2°48.666 328.7 11.7 322 21.2
2009-05-27 07:55:13 51°20.602 2°48.65 330.6 11.7 321 21
2009-05-27 07:55:18 51°20.615 2°48.634 329 11.7 322 21.1
2009-05-27 07:55:23 51°20.628 2°48.617 329.5 11.8 321 20.9
2009-05-27 07:55:28 51°20.641 2°48.602 330.4 11.7 324 21
2009-05-27 07:55:33 51°20.654 2°48.586 329.8 11.8 321 20.5
2009-05-27 07:55:38 51°20.666 2°48.57 329.6 11.7 323 20.4
2009-05-27 07:55:43 51°20.68 2°48.555 330.9 11.8 324 21.1
2009-05-27 07:55:48 51°20.693 2°48.539 330.3 11.7 322 20.2
2009-05-27 07:55:53 51°20.706 2°48.523 330.9 11.8 324 20.5
2009-05-27 07:55:58 51°20.719 2°48.507 330.6 11.7 322 19.9
2009-05-27 07:56:03 51°20.732 2°48.492 330.8 11.6 325 20.5
2009-05-27 07:56:08 51°20.745 2°48.478 330.7 11.4 326 20.2
2009-05-27 07:56:13 51°20.758 2°48.464 332.1 11.5 325 20.2
2009-05-27 07:56:18 51°20.771 2°48.449 330.9 11.4 323 19.6
2009-05-27 07:56:23 51°20.783 2°48.433 330.3 11.5 325 20.3
2009-05-27 07:56:28 51°20.796 2°48.419 331 11.5 324 20
2009-05-27 07:56:33 51°20.809 2°48.402 330 11.6 322 19.3
2009-05-27 07:56:38 51°20.822 2°48.388 330.5 11.5 326 18.6
2009-05-27 07:56:43 51°20.835 2°48.373 331.1 11.6 322 18.7
2009-05-27 07:56:48 51°20.848 2°48.357 330.2 11.7 323 18.6
2009-05-27 07:56:53 51°20.861 2°48.342 330.3 11.7 323 17.9
2009-05-27 07:56:58 51°20.874 2°48.326 330.4 11.7 323 18.1
2009-05-27 07:57:03 51°20.887 2°48.31 329.9 11.8 324 18.9
2009-05-27 07:57:08 51°20.9 2°48.295 331 11.8 323 18.5
2009-05-27 07:57:13 51°20.913 2°48.279 330.1 11.8 322 18.7
2009-05-27 07:57:18 51°20.926 2°48.264 329.6 11.6 326 18.2
2009-05-27 07:57:23 51°20.939 2°48.248 330.6 11.7 322 19
2009-05-27 07:57:28 51°20.952 2°48.232 330.7 11.7 322 19.1
2009-05-27 07:57:33 51°20.965 2°48.217 330.3 11.7 324 18.5
2009-05-27 07:57:38 51°20.978 2°48.202 330.9 11.6 325 18.6
2009-05-27 07:57:43 51°20.991 2°48.187 330.4 11.6 323 18.5
2009-05-27 07:57:48 51°21.004 2°48.172 329.9 11.6 324 18.4
2009-05-27 07:57:53 51°21.017 2°48.157 330.3 11.7 324 18.3
2009-05-27 07:57:58 51°21.03 2°48.142 331.1 11.5 324 18.6
2009-05-27 07:58:03 51°21.043 2°48.127 330.9 11.6 325 18.8
2009-05-27 07:58:08 51°21.056 2°48.112 330.9 11.7 324 18.9
2009-05-27 07:58:13 51°21.069 2°48.096 330.1 11.8 324 19
2009-05-27 07:58:18 51°21.082 2°48.081 330.2 11.7 322 19.1
2009-05-27 07:58:23 51°21.095 2°48.065 329.6 11.8 325 19.5
2009-05-27 07:58:28 51°21.108 2°48.05 330.5 11.8 323 20
2009-05-27 07:58:33 51°21.122 2°48.034 329.7 11.7 325 19.4
2009-05-27 07:58:38 51°21.135 2°48.019 330 11.6 324 20.2
2009-05-27 07:58:43 51°21.148 2°48.004 330.5 11.8 323 20.4
2009-05-27 07:58:48 51°21.161 2°47.987 328.2 11.8 321 19.4
2009-05-27 07:58:52 51°21.172 2°47.976 330.6 11.8 324 19.4
2009-05-27 07:58:58 51°21.187 2°47.957 330.2 11.9 323 19.1
2009-05-27 07:59:03 51°21.201 2°47.941 329.8 11.8 324 18.6
2009-05-27 07:59:08 51°21.214 2°47.925 330.3 11.8 324 19.1
2009-05-27 07:59:13 51°21.227 2°47.91 330.3 12 323 19.7
2009-05-27 07:59:18 51°21.24 2°47.893 329.6 11.9 321 19.9
2009-05-27 07:59:23 51°21.253 2°47.877 329.2 11.9 323 20.2
2009-05-27 07:59:28 51°21.266 2°47.861 328.7 11.9 322 21
2009-05-27 07:59:33 51°21.279 2°47.844 327.6 11.8 320 20.5
2009-05-27 07:59:38 51°21.292 2°47.828 326.8 11.9 320 20.7
2009-05-27 07:59:43 51°21.305 2°47.811 326.3 11.8 319 20.6
2009-05-27 07:59:48 51°21.317 2°47.794 325.3 11.8 318 21.1
2009-05-27 07:59:53 51°21.329 2°47.776 325 11.9 319 21.1
2009-05-27 07:59:58 51°21.342 2°47.759 324.5 11.9 318 21.1
2009-05-27 08:00:03 51°21.354 2°47.742 324.7 12 319 21.3
2009-05-27 08:00:08 51°21.366 2°47.724 324.6 12 318 20.7
2009-05-27 08:00:13 51°21.379 2°47.706 324.1 12 318 20.8
2009-05-27 08:00:18 51°21.392 2°47.689 324.4 12 320 21.7
2009-05-27 08:00:23 51°21.404 2°47.671 324.7 12 318 21.6
2009-05-27 08:00:28 51°21.417 2°47.653 324.1 12.1 317 21.7
2009-05-27 08:00:33 51°21.429 2°47.636 323.8 12.1 319 22.4
2009-05-27 08:00:38 51°21.441 2°47.617 323 12.2 316 22.7
2009-05-27 08:00:43 51°21.454 2°47.599 322.2 12.1 318 22.6
2009-05-27 08:00:48 51°21.466 2°47.58 321.8 12.2 315 22.6
2009-05-27 08:00:53 51°21.478 2°47.561 321.2 12.2 315 22.6
2009-05-27 08:00:58 51°21.489 2°47.541 320.2 12.1 314 21.7
2009-05-27 08:01:03 51°21.501 2°47.522 319.4 12 314 20.6
2009-05-27 08:01:08 51°21.512 2°47.503 320.7 11.9 316 20.9
2009-05-27 08:01:13 51°21.524 2°47.484 320.8 12 314 20.9
2009-05-27 08:01:18 51°21.536 2°47.466 321.5 12 315 21.2
2009-05-27 08:01:23 51°21.547 2°47.447 321 12 316 21.4
2009-05-27 08:01:28 51°21.56 2°47.429 322.2 11.9 318 22.3
2009-05-27 08:01:33 51°21.572 2°47.412 324.5 11.9 320 22.5
2009-05-27 08:01:38 51°21.585 2°47.396 326.7 11.8 322 22.2
2009-05-27 08:01:43 51°21.598 2°47.38 328.2 11.8 323 22.5
2009-05-27 08:01:48 51°21.612 2°47.365 329.3 11.9 325 23.2
2009-05-27 08:01:52 51°21.623 2°47.353 332 11.8 328 22.9
2009-05-27 08:01:58 51°21.64 2°47.337 334.5 11.7 328 22.5
2009-05-27 08:02:03 51°21.653 2°47.323 335.1 11.7 330 23
2009-05-27 08:02:08 51°21.668 2°47.312 337.4 11.7 333 23.8
2009-05-27 08:02:13 51°21.682 2°47.298 337.9 11.7 329 23.3
2009-05-27 08:02:18 51°21.696 2°47.286 336.1 11.6 332 23.3
2009-05-27 08:02:23 51°21.71 2°47.274 338.2 11.7 331 23.4
2009-05-27 08:02:28 51°21.724 2°47.261 338.5 11.8 331 23
2009-05-27 08:02:33 51°21.739 2°47.249 338.2 11.7 332 23.1
2009-05-27 08:02:38 51°21.753 2°47.237 339.1 11.8 332 22.6
2009-05-27 08:02:43 51°21.768 2°47.225 339.2 11.7 333 22.7
2009-05-27 08:02:48 51°21.782 2°47.213 339.9 11.7 334 22.7
2009-05-27 08:02:53 51°21.797 2°47.201 339.9 11.8 332 23.3
2009-05-27 08:02:58 51°21.812 2°47.19 340.4 11.7 335 22.5
2009-05-27 08:03:03 51°21.826 2°47.18 340.2 11.7 334 23.6
2009-05-27 08:03:08 51°21.841 2°47.168 340.6 11.7 332 23.3
2009-05-27 08:03:13 51°21.855 2°47.156 339.8 11.8 331 22.8
2009-05-27 08:03:18 51°21.87 2°47.143 339 11.7 332 22.7
2009-05-27 08:03:23 51°21.884 2°47.132 339.6 11.8 331 22.8
2009-05-27 08:03:28 51°21.899 2°47.119 339 11.8 332 22.5
2009-05-27 08:03:33 51°21.913 2°47.108 339.7 11.6 333 22.9
2009-05-27 08:03:38 51°21.927 2°47.094 339 11.7 331 22.8
2009-05-27 08:03:43 51°21.942 2°47.083 338.9 11.8 333 23.3
2009-05-27 08:03:48 51°21.955 2°47.07 340.1 11.8 331 23.1
2009-05-27 08:03:53 51°21.969 2°47.057 337.7 11.7 333 22.6
2009-05-27 08:03:58 51°21.984 2°47.045 339.6 11.8 331 22.5
2009-05-27 08:04:03 51°21.999 2°47.032 339.1 11.8 332 22.2
2009-05-27 08:04:08 51°22.014 2°47.022 339.8 11.8 335 22.6
2009-05-27 08:04:13 51°22.028 2°47.009 339.7 11.7 335 21.8
2009-05-27 08:04:18 51°22.043 2°46.999 341.1 11.6 336 22.3
2009-05-27 08:04:23 51°22.057 2°46.987 341.2 11.7 334 22.1
2009-05-27 08:04:28 51°22.072 2°46.976 340.9 11.7 335 21.8
2009-05-27 08:04:33 51°22.086 2°46.964 341.2 11.8 333 20.8
2009-05-27 08:04:38 51°22.101 2°46.954 340.5 11.7 335 21.2
2009-05-27 08:04:43 51°22.115 2°46.942 340.6 11.6 334 21
2009-05-27 08:04:48 51°22.129 2°46.931 341.3 11.5 334 20.6
2009-05-27 08:04:52 51°22.141 2°46.922 341.2 11.5 335 20.6
2009-05-27 08:04:58 51°22.158 2°46.909 341.7 11.7 334 20.5
2009-05-27 08:05:03 51°22.173 2°46.898 341.2 11.6 334 19.8
2009-05-27 08:05:08 51°22.188 2°46.886 341.1 11.6 334 19.4
2009-05-27 08:05:13 51°22.202 2°46.875 341.2 11.6 334 18.8
2009-05-27 08:05:18 51°22.217 2°46.864 341.3 11.6 333 18.8
2009-05-27 08:05:23 51°22.232 2°46.852 341.4 11.6 335 19.1
2009-05-27 08:05:28 51°22.246 2°46.841 341.5 11.7 333 17.9
2009-05-27 08:05:33 51°22.26 2°46.83 341.2 11.5 335 17.4
2009-05-27 08:05:38 51°22.275 2°46.818 341.5 11.6 333 17.3
2009-05-27 08:05:43 51°22.289 2°46.808 341 11.5 337 17
2009-05-27 08:05:48 51°22.304 2°46.796 341.1 11.6 332 16.7
2009-05-27 08:05:53 51°22.318 2°46.785 340.8 11.5 336 15.9
2009-05-27 08:05:58 51°22.332 2°46.774 341.4 11.4 333 15.9
2009-05-27 08:06:03 51°22.347 2°46.763 340.9 11.4 336 16.1
2009-05-27 08:06:08 51°22.361 2°46.752 341.5 11.4 334 15.8
2009-05-27 08:06:13 51°22.375 2°46.74 340.1 11.4 336 16.1
2009-05-27 08:06:18 51°22.389 2°46.73 341.3 11.5 331 16.8
2009-05-27 08:06:23 51°22.404 2°46.718 340.3 11.4 336 16.8
2009-05-27 08:06:28 51°22.418 2°46.707 341.2 11.5 333 17
2009-05-27 08:06:33 51°22.432 2°46.696 340.5 11.4 336 17.4
2009-05-27 08:06:38 51°22.446 2°46.685 340.5 11.4 333 17.8
2009-05-27 08:06:43 51°22.461 2°46.673 339.6 11.5 334 17.8
2009-05-27 08:06:48 51°22.474 2°46.66 338.9 11.5 329 17.7
2009-05-27 08:06:53 51°22.488 2°46.647 336.9 11.5 330 17.8
2009-05-27 08:06:58 51°22.502 2°46.634 336.9 11.6 325 18.5
2009-05-27 08:07:03 51°22.515 2°46.62 334.9 11.5 330 18.2
2009-05-27 08:07:08 51°22.529 2°46.607 335.4 11.6 328 18.7
2009-05-27 08:07:13 51°22.542 2°46.592 333.9 11.6 327 18.1
2009-05-27 08:07:18 51°22.556 2°46.578 333.1 11.7 326 17.8
2009-05-27 08:07:23 51°22.569 2°46.563 333.2 11.6 326 18.6
2009-05-27 08:07:28 51°22.583 2°46.55 332.7 11.6 328 19.6
2009-05-27 08:07:33 51°22.596 2°46.535 333.2 11.5 325 19.5
2009-05-27 08:07:38 51°22.609 2°46.521 332.6 11.5 326 19.6
2009-05-27 08:07:43 51°22.623 2°46.507 332.5 11.5 327 20.3
2009-05-27 08:07:48 51°22.635 2°46.492 332.1 11.5 325 20.2
2009-05-27 08:07:52 51°22.646 2°46.48 331.9 11.6 325 20.5
2009-05-27 08:07:58 51°22.662 2°46.463 332.1 11.7 327 21
2009-05-27 08:08:03 51°22.675 2°46.448 332.3 11.7 325 20.9
2009-05-27 08:08:08 51°22.689 2°46.434 332.7 11.6 328 20.7
2009-05-27 08:08:13 51°22.702 2°46.42 333.1 11.7 324 20.7
2009-05-27 08:08:18 51°22.716 2°46.405 332 11.5 328 21.1
2009-05-27 08:08:23 51°22.729 2°46.391 333 11.6 327 19.7
2009-05-27 08:08:28 51°22.742 2°46.376 333.3 11.7 324 20.3
2009-05-27 08:08:33 51°22.756 2°46.362 332.7 11.6 327 21.1
2009-05-27 08:08:38 51°22.769 2°46.347 332.5 11.7 325 21.3
2009-05-27 08:08:43 51°22.782 2°46.333 332.6 11.6 328 21.8
2009-05-27 08:08:48 51°22.796 2°46.319 333.9 11.7 325 22.2
2009-05-27 08:08:53 51°22.809 2°46.305 332.1 11.5 328 21.3
2009-05-27 08:08:58 51°22.822 2°46.292 332.6 11.3 328 22.3
2009-05-27 08:09:03 51°22.836 2°46.278 333.9 11.3 326 22.5
2009-05-27 08:09:08 51°22.848 2°46.264 331.9 11.2 325 22.4
2009-05-27 08:09:13 51°22.862 2°46.251 334 11.3 327 22.7
2009-05-27 08:09:18 51°22.875 2°46.236 332.3 11.4 326 22.8
2009-05-27 08:09:23 51°22.888 2°46.222 332.8 11.3 327 23.1
2009-05-27 08:09:28 51°22.901 2°46.208 332.8 11.3 326 23
2009-05-27 08:09:33 51°22.914 2°46.194 332.6 11.4 326 23.7
2009-05-27 08:09:38 51°22.927 2°46.18 333.1 11.4 325 23
2009-05-27 08:09:43 51°22.94 2°46.165 332.7 11.5 325 22.8
2009-05-27 08:09:48 51°22.953 2°46.151 332.5 11.5 326 22.3
2009-05-27 08:09:53 51°22.966 2°46.137 333.1 11.5 327 22.1
2009-05-27 08:09:58 51°22.98 2°46.123 334 11.6 326 21.7
2009-05-27 08:10:03 51°22.993 2°46.107 332.6 11.5 325 20.5
2009-05-27 08:10:08 51°23.006 2°46.093 332.5 11.6 327 21.4
2009-05-27 08:10:13 51°23.019 2°46.078 332.5 11.5 325 21.1
2009-05-27 08:10:18 51°23.033 2°46.065 333.8 11.5 327 21.3
2009-05-27 08:10:23 51°23.046 2°46.051 334.5 11.6 326 22.3
2009-05-27 08:10:28 51°23.059 2°46.036 333.1 11.5 325 22.6
2009-05-27 08:10:33 51°23.073 2°46.023 332.8 11.5 327 22.2
2009-05-27 08:10:38 51°23.086 2°46.008 333.3 11.5 327 22
2009-05-27 08:10:43 51°23.1 2°45.994 334.1 11.5 327 23.4
2009-05-27 08:10:48 51°23.113 2°45.979 332.9 11.6 325 23.6
2009-05-27 08:10:52 51°23.124 2°45.968 332.9 11.6 329 24.1
2009-05-27 08:10:58 51°23.14 2°45.951 333.9 11.7 324 24.4
2009-05-27 08:11:03 51°23.153 2°45.938 332.7 11.4 329 24.4
2009-05-27 08:11:08 51°23.167 2°45.924 333.7 11.6 328 24.3
2009-05-27 08:11:13 51°23.18 2°45.91 334.5 11.5 329 25.2
2009-05-27 08:11:18 51°23.194 2°45.897 334.3 11.5 327 25
2009-05-27 08:11:23 51°23.207 2°45.883 333.3 11.5 329 25.2
2009-05-27 08:11:28 51°23.221 2°45.87 333.4 11.4 328 23.7
2009-05-27 08:11:33 51°23.234 2°45.856 333.7 11.3 328 24.2
2009-05-27 08:11:38 51°23.247 2°45.844 334.4 11.4 329 25
2009-05-27 08:11:43 51°23.26 2°45.829 332.9 11.4 325 23.9
2009-05-27 08:11:48 51°23.274 2°45.817 332.8 11.3 330 24
2009-05-27 08:11:53 51°23.286 2°45.802 333.2 11.2 325 24.8
2009-05-27 08:11:58 51°23.299 2°45.788 332.1 11.2 327 25.6
2009-05-27 08:12:03 51°23.313 2°45.774 332.9 11.4 326 26.1
2009-05-27 08:12:08 51°23.326 2°45.76 332.3 11.4 325 25.9
2009-05-27 08:12:13 51°23.339 2°45.747 333.2 11.5 327 26.6
2009-05-27 08:12:18 51°23.352 2°45.732 332.6 11.5 327 26.5
2009-05-27 08:12:23 51°23.366 2°45.719 332.2 11.5 325 26.2
2009-05-27 08:12:28 51°23.379 2°45.704 332.3 11.6 327 26.4
2009-05-27 08:12:33 51°23.392 2°45.689 332.1 11.5 326 26.2
2009-05-27 08:12:38 51°23.405 2°45.675 332.7 11.5 327 26
2009-05-27 08:12:43 51°23.418 2°45.661 332.4 11.4 327 24.8
2009-05-27 08:12:48 51°23.432 2°45.648 334 11.3 329 25.1
2009-05-27 08:12:53 51°23.445 2°45.634 332.9 11.4 326 25.2
2009-05-27 08:12:58 51°23.458 2°45.621 333.2 11.4 327 25.4
2009-05-27 08:13:03 51°23.471 2°45.606 332.7 11.3 324 25.1
2009-05-27 08:13:08 51°23.485 2°45.593 333.3 11.4 329 25.9
2009-05-27 08:13:13 51°23.497 2°45.577 333 11.5 322 25.9
2009-05-27 08:13:18 51°23.511 2°45.564 333.2 11.4 329 25.9
2009-05-27 08:13:23 51°23.523 2°45.549 332.5 11.6 323 25.8
2009-05-27 08:13:28 51°23.538 2°45.536 333 11.5 330 26.7
2009-05-27 08:13:33 51°23.55 2°45.52 332.1 11.5 324 26.2
2009-05-27 08:13:38 51°23.564 2°45.507 333.2 11.3 327 25.4
2009-05-27 08:13:43 51°23.576 2°45.491 332.5 11.5 324 26.1
2009-05-27 08:13:48 51°23.59 2°45.479 334.3 11.4 329 25.6
2009-05-27 08:13:52 51°23.601 2°45.467 334 11.5 324 25.5
2009-05-27 08:13:58 51°23.616 2°45.45 333.7 11.3 328 25.2
2009-05-27 08:14:03 51°23.63 2°45.436 335.1 11.5 325 25.5
2009-05-27 08:14:08 51°23.643 2°45.421 332.7 11.5 326 25.8
2009-05-27 08:14:13 51°23.656 2°45.408 333.7 11.5 327 25.8
2009-05-27 08:14:18 51°23.669 2°45.392 333.2 11.6 323 25.3
2009-05-27 08:14:23 51°23.682 2°45.378 331.9 11.5 327 25.5
2009-05-27 08:14:28 51°23.695 2°45.363 333.6 11.5 325 25.7
2009-05-27 08:14:33 51°23.708 2°45.349 332.8 11.5 328 26.4
2009-05-27 08:14:38 51°23.721 2°45.335 333.4 11.5 325 26.1
2009-05-27 08:14:43 51°23.734 2°45.32 332.9 11.6 326 25.4
2009-05-27 08:14:48 51°23.748 2°45.306 333.1 11.6 326 25.2
2009-05-27 08:14:53 51°23.761 2°45.291 333.2 11.6 325 24.8
2009-05-27 08:14:58 51°23.774 2°45.277 332.4 11.4 327 25.1
2009-05-27 08:15:03 51°23.787 2°45.263 333.1 11.6 326 26
2009-05-27 08:15:08 51°23.8 2°45.249 332.5 11.4 327 25.2
2009-05-27 08:15:13 51°23.814 2°45.235 333.2 11.4 326 25.4
2009-05-27 08:15:18 51°23.826 2°45.219 332.8 11.5 323 24.9
2009-05-27 08:15:23 51°23.84 2°45.205 332.3 11.5 327 25.2
2009-05-27 08:15:28 51°23.853 2°45.191 333.2 11.6 325 25
2009-05-27 08:15:33 51°23.866 2°45.177 333 11.4 327 24.6
2009-05-27 08:15:38 51°23.88 2°45.164 334.3 11.2 329 25.8
2009-05-27 08:15:43 51°23.893 2°45.149 334 11.3 325 25
2009-05-27 08:15:48 51°23.906 2°45.136 333.6 11.2 328 24.7
2009-05-27 08:15:53 51°23.919 2°45.122 334.2 11.4 323 25.3
2009-05-27 08:15:58 51°23.932 2°45.108 333.6 11.3 326 25.6
2009-05-27 08:16:03 51°23.944 2°45.093 332.9 11.4 325 25.5
2009-05-27 08:16:08 51°23.958 2°45.079 334.5 11.5 326 24.5
2009-05-27 08:16:13 51°23.97 2°45.064 332.7 11.5 324 24.7
2009-05-27 08:16:18 51°23.984 2°45.05 334.3 11.4 328 25
2009-05-27 08:16:23 51°23.997 2°45.036 334.1 11.5 326 25
2009-05-27 08:16:28 51°24.01 2°45.022 334.4 11.5 326 25.5
2009-05-27 08:16:33 51°24.024 2°45.008 333.1 11.3 329 25.2
2009-05-27 08:16:38 51°24.037 2°44.995 333.9 11.2 326 24.9
2009-05-27 08:16:43 51°24.05 2°44.981 334 11.2 328 25.4
2009-05-27 08:16:48 51°24.063 2°44.969 335.4 11.1 331 25.1
2009-05-27 08:16:52 51°24.075 2°44.961 340.7 10.9 339 24.3
2009-05-27 08:16:58 51°24.091 2°44.952 345.2 10.8 342 24.1
2009-05-27 08:17:03 51°24.106 2°44.946 349.9 10.7 348 25.6
2009-05-27 08:17:08 51°24.12 2°44.944 356.9 10.6 355 25.7
2009-05-27 08:17:13 51°24.135 2°44.944 3 10.3 3 24.2
2009-05-27 08:17:18 51°24.149 2°44.947 9.8 10.3 10 24.8
2009-05-27 08:17:23 51°24.162 2°44.953 17.3 10.2 18 25.6
2009-05-27 08:17:28 51°24.175 2°44.963 24.7 10.1 23 25.4
2009-05-27 08:17:33 51°24.187 2°44.974 30.8 10 33 25.1
2009-05-27 08:17:38 51°24.199 2°44.986 36.5 10 34 24.2
2009-05-27 08:17:43 51°24.209 2°45.001 41.1 10 39 24.4
2009-05-27 08:17:48 51°24.221 2°45.014 41 10.2 35 25.7
2009-05-27 08:17:53 51°24.23 2°45.03 45.3 10.3 48 25.1
2009-05-27 08:17:58 51°24.241 2°45.046 47.8 10.3 43 25.4
2009-05-27 08:18:03 51°24.251 2°45.063 48.8 10.4 51 25.1
2009-05-27 08:18:08 51°24.26 2°45.081 52.4 10.3 50 25.1
2009-05-27 08:18:13 51°24.268 2°45.099 53.2 10.3 54 24.7
2009-05-27 08:18:18 51°24.277 2°45.118 54.8 10.6 55 23
2009-05-27 08:18:23 51°24.285 2°45.138 57.7 10.6 56 25.6
2009-05-27 08:18:28 51°24.293 2°45.157 58.2 10.5 59 25.4
2009-05-27 08:18:33 51°24.3 2°45.178 60.8 10.6 57 24.9
2009-05-27 08:18:38 51°24.309 2°45.197 58.5 10.6 55 24.9
2009-05-27 08:18:43 51°24.315 2°45.218 61 10.5 62 24.7
2009-05-27 08:18:48 51°24.322 2°45.238 62.4 10.6 61 24.8
2009-05-27 08:18:53 51°24.33 2°45.258 62.9 10.5 56 24.5
2009-05-27 08:18:58 51°24.337 2°45.279 62.4 10.5 65 24.3
2009-05-27 08:19:03 51°24.343 2°45.3 64.3 10.8 61 23.7
2009-05-27 08:19:08 51°24.352 2°45.321 63 10.9 58 24.5
2009-05-27 08:19:13 51°24.357 2°45.342 63.9 10.6 65 25.6
2009-05-27 08:19:18 51°24.366 2°45.362 63.2 10.8 57 25.1
2009-05-27 08:19:23 51°24.373 2°45.384 62.2 11 60 25.6
2009-05-27 08:19:28 51°24.381 2°45.404 62 10.7 59 25.2
2009-05-27 08:19:33 51°24.389 2°45.423 60.2 10.5 54 25.2
2009-05-27 08:19:38 51°24.396 2°45.443 59.6 10.6 63 24.8
2009-05-27 08:19:43 51°24.404 2°45.463 60.5 10.5 54 24.8
2009-05-27 08:19:48 51°24.412 2°45.483 59.4 10.6 59 24.6
2009-05-27 08:19:52 51°24.418 2°45.498 58.6 10.7 51 23.2
2009-05-27 08:19:58 51°24.429 2°45.522 57.4 10.7 58 24.8
2009-05-27 08:20:03 51°24.437 2°45.541 58 10.6 55 24.7
2009-05-27 08:20:08 51°24.446 2°45.56 57.4 10.6 54 25
2009-05-27 08:20:13 51°24.454 2°45.579 56.3 10.5 54 24.6
2009-05-27 08:20:18 51°24.462 2°45.598 56.9 10.6 55 25
2009-05-27 08:20:23 51°24.472 2°45.616 55.4 10.6 53 25.1
2009-05-27 08:20:28 51°24.479 2°45.637 57.7 10.7 59 25
2009-05-27 08:20:33 51°24.489 2°45.656 57.2 10.9 52 24.9
2009-05-27 08:20:38 51°24.498 2°45.674 52.7 10.3 52 24.9
2009-05-27 08:20:43 51°24.504 2°45.694 57.3 10.3 63 24.4
2009-05-27 08:20:48 51°24.513 2°45.713 61.1 10.4 53 24.8
2009-05-27 08:20:53 51°24.522 2°45.73 53.3 10.3 50 25
2009-05-27 08:20:58 51°24.53 2°45.749 56 10.3 57 24.5
2009-05-27 08:21:03 51°24.539 2°45.767 56.7 10.5 51 24.2
2009-05-27 08:21:08 51°24.548 2°45.785 53.9 10.3 49 -999
2009-05-27 08:21:13 51°24.555 2°45.804 56.8 10.3 59 24.5
2009-05-27 08:21:18 51°24.565 2°45.821 55.2 10.4 47 24.3
2009-05-27 08:21:23 51°24.574 2°45.839 52.7 10.1 55 24
2009-05-27 08:21:28 51°24.582 2°45.858 55.9 10.3 57 24.2
2009-05-27 08:21:33 51°24.591 2°45.876 56.4 10.5 49 24.1
2009-05-27 08:21:38 51°24.6 2°45.894 53.9 10.5 55 24.2
2009-05-27 08:21:43 51°24.609 2°45.913 55.2 10.5 52 24.2
2009-05-27 08:21:48 51°24.617 2°45.931 56.1 10.3 55 24.1
2009-05-27 08:21:52 51°24.623 2°45.947 57.1 10.3 54 24.2
2009-05-27 08:21:58 51°24.635 2°45.967 54.7 10.2 51 24.1
2009-05-27 08:22:03 51°24.641 2°45.987 57.5 10.2 62 23.6
2009-05-27 08:22:08 51°24.651 2°46.004 57.3 10.2 48 23.5
2009-05-27 08:22:13 51°24.658 2°46.024 55.6 10.3 58 23.4
2009-05-27 08:22:18 51°24.667 2°46.042 56.8 10.4 52 23.3
2009-05-27 08:22:23 51°24.675 2°46.061 57.1 10.3 55 23.3
2009-05-27 08:22:28 51°24.684 2°46.079 56.3 10.5 52 23.5
2009-05-27 08:22:33 51°24.692 2°46.098 56.9 10.2 55 23.2
2009-05-27 08:22:38 51°24.7 2°46.117 57.3 10.4 58 23.2
2009-05-27 08:22:43 51°24.708 2°46.136 58.4 10.5 53 23.6
2009-05-27 08:22:48 51°24.717 2°46.154 56 10.3 53 23.7
2009-05-27 08:22:53 51°24.725 2°46.174 56.1 10.4 57 23.5
2009-05-27 08:22:58 51°24.734 2°46.192 57.3 10.4 52 23.7
2009-05-27 08:23:03 51°24.742 2°46.211 56.9 10.5 55 23.5
2009-05-27 08:23:08 51°24.751 2°46.23 56.6 10.6 51 23.6
2009-05-27 08:23:13 51°24.759 2°46.25 56.7 10.6 59 23.3
2009-05-27 08:23:18 51°24.768 2°46.267 57.1 10.5 49 24
2009-05-27 08:23:23 51°24.776 2°46.287 56 10.5 62 23.7
2009-05-27 08:23:28 51°24.784 2°46.306 58.3 10.5 52 23.9
2009-05-27 08:23:33 51°24.793 2°46.323 55 10.1 55 23.8
2009-05-27 08:23:38 51°24.8 2°46.343 57.5 10.4 58 23.4
2009-05-27 08:23:43 51°24.811 2°46.36 55.2 10.4 47 23.8
2009-05-27 08:23:48 51°24.819 2°46.378 53.4 10.2 56 23.7
2009-05-27 08:23:53 51°24.827 2°46.397 56.9 10.3 54 23.8
2009-05-27 08:23:58 51°24.836 2°46.415 55.7 10.5 52 23.8
2009-05-27 08:24:03 51°24.844 2°46.435 55.7 10.7 55 24.2
2009-05-27 08:24:08 51°24.854 2°46.453 56.6 10.7 52 23.8
2009-05-27 08:24:13 51°24.861 2°46.474 56.6 10.8 56 24
2009-05-27 08:24:18 51°24.87 2°46.493 56.7 10.6 56 24
2009-05-27 08:24:23 51°24.879 2°46.512 57.7 10.6 53 23.5
2009-05-27 08:24:28 51°24.888 2°46.53 55.7 10.7 51 23.4
2009-05-27 08:24:33 51°24.896 2°46.55 56.3 10.4 58 23.3
2009-05-27 08:24:38 51°24.903 2°46.569 59 10.5 57 23.7
2009-05-27 08:24:43 51°24.913 2°46.587 56.1 10.4 54 23.8
2009-05-27 08:24:48 51°24.92 2°46.606 56.8 10.3 55 24.1
2009-05-27 08:24:53 51°24.929 2°46.625 55.8 10.5 56 23.6
2009-05-27 08:24:58 51°24.937 2°46.644 57.6 10.5 54 23.2
2009-05-27 08:25:03 51°24.946 2°46.662 56.8 10.3 54 23.5
2009-05-27 08:25:08 51°24.953 2°46.683 57.1 10.6 60 23.9
2009-05-27 08:25:12 51°24.961 2°46.697 56.6 10.5 51 24.1
2009-05-27 08:25:18 51°24.969 2°46.721 58.1 10.4 63 24
2009-05-27 08:25:23 51°24.979 2°46.739 58.7 10.5 49 23.7
2009-05-27 08:25:28 51°24.987 2°46.758 56 10.5 56 23.7
2009-05-27 08:25:33 51°24.995 2°46.778 58.3 10.4 55 23.5
2009-05-27 08:25:38 51°25.003 2°46.797 58.2 10.5 58 23.6
2009-05-27 08:25:43 51°25.011 2°46.816 58.1 10.5 54 23.6
2009-05-27 08:25:48 51°25.018 2°46.836 58.8 10.5 60 23.9
2009-05-27 08:25:53 51°25.028 2°46.854 57 10.5 49 23.6
2009-05-27 08:25:58 51°25.036 2°46.873 55.6 10.5 57 23.8
2009-05-27 08:26:03 51°25.043 2°46.892 58.5 10.3 54 23.7
2009-05-27 08:26:08 51°25.051 2°46.912 57.8 10.7 57 23.5
2009-05-27 08:26:13 51°25.061 2°46.931 56.8 10.8 53 23.5
2009-05-27 08:26:18 51°25.068 2°46.951 58 10.5 59 23.7
2009-05-27 08:26:23 51°25.076 2°46.97 58.1 10.5 54 23.4
2009-05-27 08:26:28 51°25.085 2°46.99 56.9 10.6 56 23.3
2009-05-27 08:26:33 51°25.092 2°47.009 58.2 10.5 53 23.4
2009-05-27 08:26:38 51°25.101 2°47.029 56.2 10.7 60 23.8
2009-05-27 08:26:43 51°25.109 2°47.049 58.2 10.7 55 23.5
2009-05-27 08:26:48 51°25.117 2°47.067 57.4 10.5 54 23.4
2009-05-27 08:26:53 51°25.125 2°47.087 56.7 10.5 56 23.7
2009-05-27 08:26:58 51°25.133 2°47.106 57.4 10.7 58 23.8
2009-05-27 08:27:03 51°25.141 2°47.127 58.9 10.7 54 23.6
2009-05-27 08:27:08 51°25.149 2°47.146 57.4 10.4 57 23.5
2009-05-27 08:27:13 51°25.157 2°47.165 58.1 10.5 56 23.6
2009-05-27 08:27:18 51°25.165 2°47.184 57.6 10.4 58 23.3
2009-05-27 08:27:23 51°25.172 2°47.205 60.1 10.3 60 23.5
2009-05-27 08:27:28 51°25.181 2°47.223 58.5 10.5 52 23.5
2009-05-27 08:27:33 51°25.188 2°47.243 56.9 10.5 60 23.5
2009-05-27 08:27:38 51°25.196 2°47.263 59 10.5 58 23.4
2009-05-27 08:27:43 51°25.205 2°47.282 57.7 10.4 55 23.4
2009-05-27 08:27:48 51°25.211 2°47.302 59.4 10.3 62 23.6
2009-05-27 08:27:53 51°25.219 2°47.322 59.8 10.5 56 23.7
2009-05-27 08:27:58 51°25.228 2°47.34 57.5 10.4 53 23.2
2009-05-27 08:28:03 51°25.234 2°47.361 59.3 10.3 63 23.4
2009-05-27 08:28:08 51°25.243 2°47.379 59 10.4 53 23.2
2009-05-27 08:28:12 51°25.248 2°47.395 58.8 10.5 60 24